createdAt,value
2024-02-16T00:00:15.884Z,100010.67
2024-02-16T00:02:43.623Z,100003.23
2024-02-16T00:05:11.436Z,99999.80
2024-02-16T00:07:39.229Z,99994.63
2024-02-16T00:10:06.991Z,99987.54
2024-02-16T00:12:34.679Z,99977.64
2024-02-16T00:15:02.401Z,99975.65
2024-02-16T00:17:30.234Z,99979.61
2024-02-16T00:19:58.220Z,99979.20
2024-02-16T00:22:26.317Z,99974.73
2024-02-16T00:24:53.898Z,99979.42
2024-02-16T00:27:21.543Z,99979.98
2024-02-16T00:29:49.630Z,99978.27
2024-02-16T00:32:17.376Z,99975.31
2024-02-16T00:34:45.094Z,99977.06
2024-02-16T00:37:12.803Z,99978.27
2024-02-16T00:39:41.074Z,99976.97
2024-02-16T00:42:08.661Z,99972.33
2024-02-16T00:44:36.402Z,99968.93
2024-02-16T00:47:04.164Z,99972.27
2024-02-16T00:49:31.987Z,99970.99
2024-02-16T00:51:59.841Z,99967.99
2024-02-16T00:54:27.596Z,99966.44
2024-02-16T00:56:55.363Z,99961.48
2024-02-16T00:59:23.004Z,99959.05
2024-02-16T01:01:50.959Z,99963.48
2024-02-16T01:04:18.537Z,99963.70
2024-02-16T01:06:46.179Z,99961.42
2024-02-16T01:09:13.856Z,99961.45
2024-02-16T01:11:41.400Z,99960.02
2024-02-16T01:14:09.161Z,99957.48
2024-02-16T01:16:36.848Z,99952.44
2024-02-16T01:19:04.589Z,99955.32
2024-02-16T01:21:32.398Z,99957.66
2024-02-16T01:24:00.133Z,99954.56
2024-02-16T01:26:27.780Z,99954.40
2024-02-16T01:28:55.336Z,99950.46
2024-02-16T01:31:23.016Z,99948.00
2024-02-16T01:33:50.663Z,99950.29
2024-02-16T01:36:18.531Z,99944.90
2024-02-16T01:38:46.319Z,99944.70
2024-02-16T01:41:14.257Z,99939.73
2024-02-16T01:43:41.747Z,99938.41
2024-02-16T01:46:09.297Z,99934.02
2024-02-16T01:48:37.063Z,99934.96
2024-02-16T01:51:04.858Z,99930.71
2024-02-16T01:53:32.562Z,99926.79
2024-02-16T01:56:00.229Z,99928.70
2024-02-16T01:58:27.893Z,99928.52
2024-02-16T02:00:55.579Z,99926.19
2024-02-16T02:03:23.437Z,99928.05
2024-02-16T02:05:51.259Z,99926.79
2024-02-16T02:08:19.351Z,99928.75
2024-02-16T02:10:46.953Z,99929.80
2024-02-16T02:13:14.674Z,99928.24
2024-02-16T02:15:42.366Z,99927.90
2024-02-16T02:18:10.321Z,99930.20
2024-02-16T02:20:38.170Z,99930.36
2024-02-16T02:23:05.760Z,99933.02
2024-02-16T02:25:33.408Z,99935.50
2024-02-16T02:28:01.369Z,99939.38
2024-02-16T02:30:29.031Z,99936.16
2024-02-16T02:32:56.788Z,99938.26
2024-02-16T02:35:24.461Z,99939.14
2024-02-16T02:37:52.106Z,99938.61
2024-02-16T02:40:19.670Z,99932.64
2024-02-16T02:42:47.344Z,99927.39
2024-02-16T02:45:14.937Z,99926.13
2024-02-16T02:47:42.788Z,99930.58
2024-02-16T02:50:10.814Z,99934.80
2024-02-16T02:52:38.600Z,99934.25
2024-02-16T02:55:06.158Z,99934.95
2024-02-16T02:57:33.735Z,99933.88
2024-02-16T03:00:01.428Z,99936.71
2024-02-16T03:02:29.037Z,99937.44
2024-02-16T03:04:56.607Z,99936.19
2024-02-16T03:07:24.326Z,99935.00
2024-02-16T03:09:52.120Z,99936.14
2024-02-16T03:12:20.042Z,99937.78
2024-02-16T03:14:47.778Z,99934.83
2024-02-16T03:17:15.319Z,99933.45
2024-02-16T03:19:42.930Z,99935.80
2024-02-16T03:22:10.639Z,99934.30
2024-02-16T03:24:38.211Z,99935.42
2024-02-16T03:27:05.907Z,99934.98
2024-02-16T03:29:34.152Z,99930.98
2024-02-16T03:32:01.688Z,99931.59
2024-02-16T03:34:29.385Z,99931.33
2024-02-16T03:36:57.222Z,99929.98
2024-02-16T03:39:24.946Z,99932.64
2024-02-16T03:41:52.667Z,99935.13
2024-02-16T03:44:20.314Z,99936.25
2024-02-16T03:46:47.872Z,99936.89
2024-02-16T03:49:15.544Z,99938.02
2024-02-16T03:51:43.531Z,99940.74
2024-02-16T03:54:11.180Z,99941.86
2024-02-16T03:56:38.733Z,99942.10
2024-02-16T03:59:07.859Z,99942.88
2024-02-16T04:01:36.309Z,99943.80
2024-02-16T04:04:04.075Z,99941.38
2024-02-16T04:06:31.749Z,99939.23
2024-02-16T04:08:59.545Z,99929.28
2024-02-16T04:11:27.471Z,99928.23
2024-02-16T04:13:55.008Z,99925.42
2024-02-16T04:16:22.611Z,99921.79
2024-02-16T04:18:50.518Z,99918.51
2024-02-16T04:21:18.376Z,99916.98
2024-02-16T04:23:46.081Z,99920.87
2024-02-16T04:26:13.739Z,99917.85
2024-02-16T04:28:41.389Z,99917.67
2024-02-16T04:31:09.365Z,99917.14
2024-02-16T04:33:36.881Z,99919.28
2024-02-16T04:36:04.731Z,99913.48
2024-02-16T04:38:32.351Z,99910.54
2024-02-16T04:41:00.018Z,99908.60
2024-02-16T04:43:27.575Z,99909.67
2024-02-16T04:45:55.236Z,99912.33
2024-02-16T04:48:22.893Z,99915.67
2024-02-16T04:50:50.588Z,99924.11
2024-02-16T04:53:18.330Z,99922.51
2024-02-16T04:55:46.181Z,99915.62
2024-02-16T04:58:13.736Z,99914.02
2024-02-16T05:00:41.373Z,99909.95
2024-02-16T05:03:09.223Z,99907.86
2024-02-16T05:05:37.082Z,99908.31
2024-02-16T05:08:04.692Z,99906.81
2024-02-16T05:10:32.392Z,99906.08
2024-02-16T05:12:59.923Z,99904.64
2024-02-16T05:15:27.737Z,99898.67
2024-02-16T05:17:55.830Z,99895.48
2024-02-16T05:20:23.618Z,99899.33
2024-02-16T05:22:51.178Z,99899.31
2024-02-16T05:25:18.960Z,99894.71
2024-02-16T05:27:46.808Z,99896.52
2024-02-16T05:30:14.438Z,99897.41
2024-02-16T05:32:42.093Z,99898.70
2024-02-16T05:35:10.136Z,99896.82
2024-02-16T05:37:37.762Z,99895.23
2024-02-16T05:40:05.426Z,99899.66
2024-02-16T05:42:33.123Z,99903.69
2024-02-16T05:45:00.836Z,99899.99
2024-02-16T05:47:28.690Z,99901.95
2024-02-16T05:49:56.457Z,99908.43
2024-02-16T05:52:24.137Z,99906.31
2024-02-16T05:54:51.781Z,99906.52
2024-02-16T05:57:19.953Z,99908.14
2024-02-16T05:59:48.823Z,99909.23
2024-02-16T06:02:17.547Z,99907.14
2024-02-16T06:04:45.208Z,99909.41
2024-02-16T06:07:13.081Z,99910.10
2024-02-16T06:09:40.920Z,99915.52
2024-02-16T06:12:09.011Z,99914.19
2024-02-16T06:14:36.790Z,99916.00
2024-02-16T06:17:04.345Z,99916.72
2024-02-16T06:19:32.433Z,99915.30
2024-02-16T06:22:00.203Z,99921.02
2024-02-16T06:24:27.871Z,99921.55
2024-02-16T06:26:57.551Z,99923.58
2024-02-16T06:29:25.731Z,99923.80
2024-02-16T06:31:53.587Z,99920.08
2024-02-16T06:34:21.460Z,99921.35
2024-02-16T06:36:49.921Z,99924.35
2024-02-16T06:39:17.686Z,99923.29
2024-02-16T06:41:45.569Z,99920.73
2024-02-16T06:44:13.133Z,99921.46
2024-02-16T06:46:40.796Z,99921.30
2024-02-16T06:49:08.504Z,99925.85
2024-02-16T06:51:36.235Z,99927.07
2024-02-16T06:54:03.935Z,99922.47
2024-02-16T06:56:31.747Z,99924.44
2024-02-16T06:58:59.716Z,99921.87
2024-02-16T07:01:27.302Z,99927.09
2024-02-16T07:03:58.502Z,99928.00
2024-02-16T07:06:26.355Z,99927.64
2024-02-16T07:08:54.182Z,99925.44
2024-02-16T07:11:21.988Z,99922.81
2024-02-16T07:13:49.681Z,99923.30
2024-02-16T07:16:17.238Z,99926.64
2024-02-16T07:18:45.057Z,99928.44
2024-02-16T07:21:13.126Z,99925.55
2024-02-16T07:23:40.636Z,99926.42
2024-02-16T07:26:08.156Z,99924.23
2024-02-16T07:28:35.962Z,99924.64
2024-02-16T07:31:03.640Z,99933.73
2024-02-16T07:33:31.571Z,99921.90
2024-02-16T07:35:59.473Z,99924.92
2024-02-16T07:38:27.114Z,99920.35
2024-02-16T07:40:57.473Z,99919.94
2024-02-16T07:43:25.141Z,99914.97
2024-02-16T07:45:52.867Z,99916.16
2024-02-16T07:48:20.493Z,99913.89
2024-02-16T07:50:48.302Z,99916.55
2024-02-16T07:53:15.845Z,99911.81
2024-02-16T07:55:43.413Z,99913.55
2024-02-16T07:58:11.073Z,99907.15
2024-02-16T08:00:38.903Z,99905.52
2024-02-16T08:03:06.649Z,99902.32
2024-02-16T08:05:34.966Z,99905.24
2024-02-16T08:08:02.655Z,99904.94
2024-02-16T08:10:33.282Z,99906.61
2024-02-16T08:13:00.956Z,99904.12
2024-02-16T08:15:28.648Z,99906.66
2024-02-16T08:17:56.499Z,99906.63
2024-02-16T08:20:24.324Z,99914.17
2024-02-16T08:25:33.164Z,99912.11
2024-02-16T08:28:00.822Z,99910.44
2024-02-16T08:30:28.441Z,99910.60
2024-02-16T08:32:56.387Z,99912.81
2024-02-16T08:35:24.487Z,99910.78
2024-02-16T08:37:52.339Z,99911.70
2024-02-16T08:40:20.182Z,99911.68
2024-02-16T08:42:47.799Z,99914.91
2024-02-16T08:45:15.537Z,99912.11
2024-02-16T08:47:43.292Z,99914.55
2024-02-16T08:50:11.145Z,99914.46
2024-02-16T08:52:38.870Z,99915.95
2024-02-16T08:55:06.538Z,99914.14
2024-02-16T08:57:34.329Z,99917.20
2024-02-16T09:00:02.320Z,99911.38
2024-02-16T09:02:30.053Z,99909.18
2024-02-16T09:04:58.090Z,99909.48
2024-02-16T09:07:25.826Z,99907.58
2024-02-16T09:09:53.530Z,99908.92
2024-02-16T09:12:21.251Z,99900.88
2024-02-16T09:14:49.276Z,99904.42
2024-02-16T09:17:16.929Z,99905.90
2024-02-16T09:19:44.572Z,99912.52
2024-02-16T09:22:15.119Z,99915.80
2024-02-16T09:24:43.042Z,99917.78
2024-02-16T09:27:10.654Z,99926.23
2024-02-16T09:29:38.240Z,99921.92
2024-02-16T09:32:05.866Z,99919.83
2024-02-16T09:34:33.682Z,99916.00
2024-02-16T09:37:01.601Z,99915.60
2024-02-16T09:39:29.252Z,99920.04
2024-02-16T09:41:57.179Z,99917.41
2024-02-16T09:44:25.226Z,99917.55
2024-02-16T09:46:53.029Z,99917.18
2024-02-16T09:49:28.577Z,99919.07
2024-02-16T09:52:01.285Z,99919.31
2024-02-16T09:54:28.889Z,99917.83
2024-02-16T09:56:56.705Z,99918.28
2024-02-16T09:59:24.377Z,99919.39
2024-02-16T10:01:52.046Z,99928.20
2024-02-16T10:04:19.902Z,99931.99
2024-02-16T10:06:47.669Z,99931.30
2024-02-16T10:09:15.760Z,99936.98
2024-02-16T10:14:28.909Z,99930.91
2024-02-16T10:16:56.650Z,99932.32
2024-02-16T10:19:24.291Z,99927.05
2024-02-16T10:21:52.089Z,99921.23
2024-02-16T10:24:20.119Z,99918.98
2024-02-16T10:26:47.902Z,99909.21
2024-02-16T10:29:15.460Z,99903.34
2024-02-16T10:31:43.021Z,99903.98
2024-02-16T10:34:11.113Z,99895.89
2024-02-16T10:36:39.296Z,99896.23
2024-02-16T10:39:07.275Z,99895.11
2024-02-16T10:41:36.626Z,99891.25
2024-02-16T10:44:04.811Z,99893.10
2024-02-16T10:46:32.380Z,99893.94
2024-02-16T10:49:00.208Z,99882.40
2024-02-16T10:51:28.061Z,99884.25
2024-02-16T10:53:55.780Z,99884.20
2024-02-16T10:56:23.335Z,99871.72
2024-02-16T10:58:50.991Z,99869.30
2024-02-16T11:01:18.613Z,99869.14
2024-02-16T11:03:46.201Z,99868.55
2024-02-16T11:06:14.057Z,99866.17
2024-02-16T11:08:42.156Z,99863.95
2024-02-16T11:11:09.888Z,99866.02
2024-02-16T11:13:37.640Z,99861.23
2024-02-16T11:16:05.449Z,99859.80
2024-02-16T11:18:33.546Z,99858.27
2024-02-16T11:21:01.397Z,99847.60
2024-02-16T11:23:29.043Z,99846.30
2024-02-16T11:25:56.712Z,99846.30
2024-02-16T11:28:24.366Z,99843.65
2024-02-16T11:30:54.540Z,99845.90
2024-02-16T11:33:23.932Z,99844.31
2024-02-16T11:35:51.820Z,99838.55
2024-02-16T11:38:19.519Z,99835.63
2024-02-16T11:40:47.186Z,99835.29
2024-02-16T11:43:14.736Z,99830.13
2024-02-16T11:45:42.559Z,99828.83
2024-02-16T11:48:10.393Z,99831.88
2024-02-16T11:50:38.240Z,99825.59
2024-02-16T11:53:05.809Z,99827.92
2024-02-16T11:55:33.462Z,99831.57
2024-02-16T11:58:01.020Z,99822.77
2024-02-16T12:00:28.735Z,99820.71
2024-02-16T12:02:56.469Z,99823.68
2024-02-16T12:05:24.033Z,99821.26
2024-02-16T12:07:51.735Z,99821.31
2024-02-16T12:10:19.546Z,99820.59
2024-02-16T12:12:47.125Z,99814.71
2024-02-16T12:15:15.561Z,99821.23
2024-02-16T12:17:43.420Z,99813.05
2024-02-16T12:20:11.351Z,99814.75
2024-02-16T12:22:39.071Z,99816.66
2024-02-16T12:25:06.884Z,99808.47
2024-02-16T12:27:34.541Z,99814.52
2024-02-16T12:30:02.318Z,99813.86
2024-02-16T12:32:30.068Z,99809.02
2024-02-16T12:34:57.794Z,99806.44
2024-02-16T12:37:25.580Z,99807.59
2024-02-16T12:39:53.135Z,99798.05
2024-02-16T12:42:20.718Z,99806.06
2024-02-16T12:44:48.463Z,99802.46
2024-02-16T12:47:19.100Z,99794.14
2024-02-16T12:49:46.832Z,99801.89
2024-02-16T12:52:14.640Z,99795.64
2024-02-16T12:54:43.720Z,99792.40
2024-02-16T12:57:11.958Z,99793.12
2024-02-16T12:59:39.562Z,99787.70
2024-02-16T13:02:07.169Z,99785.36
2024-02-16T13:04:34.890Z,99790.96
2024-02-16T13:07:02.715Z,99784.31
2024-02-16T13:09:30.638Z,99785.66
2024-02-16T13:11:58.530Z,99777.87
2024-02-16T13:14:26.135Z,99776.26
2024-02-16T13:16:54.100Z,99775.38
2024-02-16T13:19:21.852Z,99772.59
2024-02-16T13:21:49.669Z,99772.45
2024-02-16T13:24:17.268Z,99769.48
2024-02-16T13:26:45.275Z,99774.64
2024-02-16T13:29:12.936Z,99765.64
2024-02-16T13:31:40.598Z,99769.13
2024-02-16T13:34:08.761Z,99772.57
2024-02-16T13:39:17.612Z,99770.79
2024-02-16T13:41:45.252Z,99773.59
2024-02-16T13:44:15.077Z,99773.98
2024-02-16T13:46:45.373Z,99771.69
2024-02-16T13:49:13.216Z,99766.80
2024-02-16T13:51:40.950Z,99771.85
2024-02-16T13:54:09.268Z,99767.02
2024-02-16T13:56:37.032Z,99776.38
2024-02-16T13:59:04.701Z,99778.35
2024-02-16T14:01:32.277Z,99775.17
2024-02-16T14:03:59.965Z,99783.05
2024-02-16T14:06:27.791Z,99787.00
2024-02-16T14:08:55.377Z,99789.14
2024-02-16T14:11:22.907Z,99791.40
2024-02-16T14:13:50.245Z,99780.02
2024-02-16T14:16:17.925Z,99776.33
2024-02-16T14:18:45.897Z,99779.02
2024-02-16T14:21:13.784Z,99771.04
2024-02-16T14:23:41.397Z,99770.55
2024-02-16T14:26:08.769Z,99769.46
2024-02-16T14:28:36.328Z,99773.27
2024-02-16T14:31:04.062Z,99764.89
2024-02-16T14:33:34.436Z,99765.73
2024-02-16T14:36:02.967Z,99761.96
2024-02-16T14:38:30.640Z,99765.53
2024-02-16T14:40:58.299Z,99763.27
2024-02-16T14:43:26.278Z,99763.83
2024-02-16T14:45:53.925Z,99766.59
2024-02-16T14:48:21.999Z,99766.05
2024-02-16T14:50:49.728Z,99764.68
2024-02-16T14:53:17.336Z,99768.02
2024-02-16T14:55:44.899Z,99760.85
2024-02-16T14:58:12.561Z,99768.80
2024-02-16T15:00:40.291Z,99764.70
2024-02-16T15:03:08.028Z,99774.94
2024-02-16T15:05:35.758Z,99764.92
2024-02-16T15:08:03.877Z,99770.30
2024-02-16T15:10:31.903Z,99767.45
2024-02-16T15:13:00.223Z,99767.90
2024-02-16T15:15:27.975Z,99770.45
2024-02-16T15:17:55.787Z,99767.09
2024-02-16T15:20:23.466Z,99764.17
2024-02-16T15:22:53.396Z,99760.37
2024-02-16T15:25:21.349Z,99758.98
2024-02-16T15:27:49.072Z,99755.19
2024-02-16T15:30:17.025Z,99754.70
2024-02-16T15:32:44.649Z,99753.93
2024-02-16T15:35:12.530Z,99748.45
2024-02-16T15:37:40.171Z,99744.40
2024-02-16T15:40:07.831Z,99743.18
2024-02-16T15:42:35.417Z,99745.89
2024-02-16T15:45:03.286Z,99739.33
2024-02-16T15:47:30.959Z,99746.51
2024-02-16T15:49:58.748Z,99747.42
2024-02-16T15:52:26.350Z,99745.91
2024-02-16T15:54:54.140Z,99750.30
2024-02-16T15:57:21.900Z,99753.91
2024-02-16T15:59:50.455Z,99757.23
2024-02-16T16:02:18.116Z,99756.08
2024-02-16T16:04:46.048Z,99758.23
2024-02-16T16:07:13.952Z,99759.47
2024-02-16T16:09:41.837Z,99765.83
2024-02-16T16:12:09.647Z,99769.08
2024-02-16T16:14:37.559Z,99771.01
2024-02-16T16:17:05.112Z,99771.00
2024-02-16T16:19:32.849Z,99767.48
2024-02-16T16:22:00.575Z,99769.45
2024-02-16T16:24:28.590Z,99766.86
2024-02-16T16:26:56.327Z,99772.23
2024-02-16T16:29:23.940Z,99769.81
2024-02-16T16:31:51.494Z,99770.05
2024-02-16T16:34:19.328Z,99769.18
2024-02-16T16:36:47.262Z,99771.25
2024-02-16T16:39:14.958Z,99772.59
2024-02-16T16:41:42.550Z,99774.23
2024-02-16T16:44:10.410Z,99775.35
2024-02-16T16:46:37.976Z,99775.64
2024-02-16T16:49:05.847Z,99778.04
2024-02-16T16:51:33.764Z,99775.63
2024-02-16T16:54:01.571Z,99775.50
2024-02-16T16:56:29.332Z,99774.40
2024-02-16T16:58:57.004Z,99773.88
2024-02-16T17:01:24.591Z,99777.67
2024-02-16T17:03:52.067Z,99773.65
2024-02-16T17:06:19.935Z,99775.08
2024-02-16T17:08:49.610Z,99774.06
2024-02-16T17:11:17.643Z,99773.23
2024-02-16T17:13:47.622Z,99774.71
2024-02-16T17:16:16.169Z,99777.70
2024-02-16T17:18:44.083Z,99775.71
2024-02-16T17:21:11.920Z,99777.41
2024-02-16T17:23:39.572Z,99786.30
2024-02-16T17:26:06.917Z,99783.70
2024-02-16T17:28:34.472Z,99785.56
2024-02-16T17:31:02.147Z,99786.67
2024-02-16T17:33:30.262Z,99790.63
2024-02-16T17:35:58.114Z,99788.48
2024-02-16T17:38:25.773Z,99786.52
2024-02-16T17:40:53.396Z,99780.95
2024-02-16T17:43:20.959Z,99787.33
2024-02-16T17:45:48.657Z,99794.91
2024-02-16T17:48:16.607Z,99792.48
2024-02-16T17:50:44.345Z,99796.48
2024-02-16T17:53:12.019Z,99807.84
2024-02-16T17:55:39.580Z,99811.57
2024-02-16T17:58:07.333Z,99810.34
2024-02-16T18:00:34.982Z,99820.25
2024-02-16T18:03:02.681Z,99805.95
2024-02-16T18:05:30.222Z,99802.55
2024-02-16T18:08:02.488Z,99803.63
2024-02-16T18:10:30.263Z,99794.34
2024-02-16T18:12:57.916Z,99799.05
2024-02-16T18:15:25.910Z,99792.48
2024-02-16T18:17:53.657Z,99793.74
2024-02-16T18:20:21.218Z,99794.02
2024-02-16T18:22:48.771Z,99795.02
2024-02-16T18:25:16.433Z,99797.98
2024-02-16T18:27:44.031Z,99800.43
2024-02-16T18:30:12.054Z,99802.71
2024-02-16T18:32:39.870Z,99802.86
2024-02-16T18:35:07.757Z,99800.20
2024-02-16T18:37:35.451Z,99797.98
2024-02-16T18:40:03.210Z,99797.38
2024-02-16T18:42:33.616Z,99797.55
2024-02-16T18:45:01.620Z,99804.06
2024-02-16T18:47:29.318Z,99805.93
2024-02-16T18:49:57.260Z,99810.94
2024-02-16T18:52:25.002Z,99815.26
2024-02-16T18:54:52.900Z,99821.33
2024-02-16T18:57:20.543Z,99815.36
2024-02-16T18:59:48.294Z,99813.46
2024-02-16T19:02:15.857Z,99816.09
2024-02-16T19:04:43.557Z,99815.62
2024-02-16T19:07:11.366Z,99816.36
2024-02-16T19:09:39.212Z,99817.76
2024-02-16T19:12:06.954Z,99817.76
2024-02-16T19:14:34.669Z,99817.58
2024-02-16T19:17:02.535Z,99817.89
2024-02-16T19:19:30.215Z,99819.86
2024-02-16T19:21:57.896Z,99821.08
2024-02-16T19:24:33.212Z,99820.30
2024-02-16T19:27:07.472Z,99822.02
2024-02-16T19:29:35.286Z,99818.26
2024-02-16T19:32:02.852Z,99821.10
2024-02-16T19:34:30.748Z,99818.86
2024-02-16T19:36:58.583Z,99821.82
2024-02-16T19:39:26.169Z,99822.84
2024-02-16T19:41:56.383Z,99824.97
2024-02-16T19:44:24.646Z,99824.33
2024-02-16T19:46:52.296Z,99827.58
2024-02-16T19:49:19.935Z,99826.89
2024-02-16T19:51:47.672Z,99824.61
2024-02-16T19:54:15.751Z,99831.39
2024-02-16T19:56:43.463Z,99826.21
2024-02-16T19:59:11.114Z,99826.52
2024-02-16T20:01:38.742Z,99828.09
2024-02-16T20:04:06.565Z,99830.02
2024-02-16T20:06:34.373Z,99829.86
2024-02-16T20:09:02.218Z,99835.26
2024-02-16T20:11:29.901Z,99835.19
2024-02-16T20:13:57.505Z,99832.39
2024-02-16T20:16:25.514Z,99834.91
2024-02-16T20:18:53.369Z,99839.37
2024-02-16T20:21:21.202Z,99838.84
2024-02-16T20:23:48.785Z,99842.05
2024-02-16T20:26:16.422Z,99846.17
2024-02-16T20:28:43.978Z,99850.64
2024-02-16T20:31:11.532Z,99846.12
2024-02-16T20:33:39.152Z,99851.49
2024-02-16T20:36:07.305Z,99849.67
2024-02-16T20:38:34.934Z,99852.67
2024-02-16T20:41:02.491Z,99854.51
2024-02-16T20:43:30.043Z,99855.48
2024-02-16T20:45:57.609Z,99853.79
2024-02-16T20:48:25.356Z,99855.50
2024-02-16T20:50:53.031Z,99851.50
2024-02-16T20:53:20.691Z,99853.48
2024-02-16T20:55:48.265Z,99850.42
2024-02-16T20:58:16.230Z,99851.33
2024-02-16T21:00:43.931Z,99853.32
2024-02-16T21:03:11.820Z,99851.27
2024-02-16T21:05:39.601Z,99850.14
2024-02-16T21:08:07.495Z,99850.39
2024-02-16T21:10:35.051Z,99849.71
2024-02-16T21:13:02.706Z,99847.45
2024-02-16T21:15:30.366Z,99851.58
2024-02-16T21:17:58.090Z,99851.43
2024-02-16T21:20:26.215Z,99848.85
2024-02-16T21:22:53.869Z,99846.98
2024-02-16T21:25:21.529Z,99848.27
2024-02-16T21:27:49.110Z,99845.75
2024-02-16T21:30:16.800Z,99853.52
2024-02-16T21:32:44.459Z,99847.18
2024-02-16T21:35:12.084Z,99851.62
2024-02-16T21:37:39.942Z,99853.23
2024-02-16T21:40:07.667Z,99853.23
2024-02-16T21:42:35.387Z,99849.89
2024-02-16T21:45:03.161Z,99847.94
2024-02-16T21:47:30.765Z,99852.73
2024-02-16T21:49:58.674Z,99852.59
2024-02-16T21:52:26.328Z,99853.89
2024-02-16T21:54:54.012Z,99853.45
2024-02-16T21:57:21.700Z,99850.34
2024-02-16T21:59:49.822Z,99854.32
2024-02-16T22:02:19.169Z,99856.80
2024-02-16T22:04:47.185Z,99857.78
2024-02-16T22:07:14.949Z,99860.92
2024-02-16T22:09:42.860Z,99859.87
2024-02-16T22:12:10.626Z,99860.29
2024-02-16T22:14:38.447Z,99859.48
2024-02-16T22:17:06.010Z,99854.91
2024-02-16T22:19:33.802Z,99854.91
2024-02-16T22:22:01.782Z,99855.09
2024-02-16T22:24:29.757Z,99854.04
2024-02-16T22:26:57.381Z,99855.85
2024-02-16T22:29:25.028Z,99855.91
2024-02-16T22:31:59.705Z,99856.30
2024-02-16T22:34:36.205Z,99857.60
2024-02-16T22:37:04.228Z,99857.11
2024-02-16T22:39:31.962Z,99858.20
2024-02-16T22:41:59.676Z,99860.30
2024-02-16T22:44:27.292Z,99864.99
2024-02-16T22:46:54.947Z,99865.13
2024-02-16T22:49:22.748Z,99865.33
2024-02-16T22:51:50.635Z,99869.95
2024-02-16T22:54:20.162Z,99873.56
2024-02-16T22:56:49.302Z,99873.77
2024-02-16T22:59:17.253Z,99873.33
2024-02-16T23:01:44.937Z,99876.37
2024-02-16T23:04:12.618Z,99877.98
2024-02-16T23:06:40.419Z,99878.31
2024-02-16T23:09:08.129Z,99887.36
2024-02-16T23:11:35.765Z,99883.48
2024-02-16T23:14:03.321Z,99883.02
2024-02-16T23:16:31.086Z,99882.59
2024-02-16T23:18:58.760Z,99881.04
2024-02-16T23:21:26.854Z,99886.05
2024-02-16T23:23:54.276Z,99887.72
2024-02-16T23:26:21.945Z,99885.41
2024-02-16T23:28:49.557Z,99888.60
2024-02-16T23:31:17.383Z,99890.05
2024-02-16T23:33:44.979Z,99890.27
2024-02-16T23:36:12.798Z,99893.19
2024-02-16T23:38:40.346Z,99894.85
2024-02-16T23:41:08.013Z,99897.55
2024-02-16T23:43:35.880Z,99900.96
2024-02-16T23:46:03.434Z,99907.69
2024-02-16T23:48:31.086Z,99902.55
2024-02-16T23:50:58.864Z,99905.52
2024-02-16T23:53:26.421Z,99902.30
2024-02-16T23:55:54.084Z,99906.40
2024-02-16T23:58:21.966Z,99906.02
